Time;durP1;ratioP1;P1;durP2;ratioP2;P2;SDS_P1;SDS_P2;PMS_P1;PMS_P2;Temp;Humidity;BMP_temperature;BMP_pressure;BME280_temperature;BME280_humidity;BME280_pressure;Samples;Min_cycle;Max_cycle;Signal;HPM_P1;HPM_P2
2022/05/08 00:02:18;;;;;;;1.95;1.17;;;9.00;99.90;;;;;;6323920;28;20226;-67
2022/05/08 00:05:23;;;;;;;2.17;1.27;;;9.00;99.90;;;;;;6324113;28;20259;-65
2022/05/08 00:08:30;;;;;;;1.38;1.00;;;9.00;99.90;;;;;;6323615;28;20237;-66
2022/05/08 00:11:36;;;;;;;1.88;0.85;;;8.90;99.90;;;;;;6343277;28;20202;-67
2022/05/08 00:14:43;;;;;;;1.80;1.00;;;8.80;99.90;;;;;;6348249;28;20243;-66
2022/05/08 00:17:48;;;;;;;0.95;0.95;;;8.80;99.90;;;;;;6349379;28;20225;-67
2022/05/08 00:20:56;;;;;;;1.08;1.08;;;8.80;99.90;;;;;;6349664;28;20213;-67
2022/05/08 00:24:03;;;;;;;0.98;0.98;;;8.70;99.90;;;;;;6351908;28;20234;-67
2022/05/08 00:27:10;;;;;;;1.10;1.05;;;8.60;99.90;;;;;;6352308;28;20208;-66
2022/05/08 00:30:15;;;;;;;0.90;0.90;;;8.60;99.80;;;;;;6333734;28;20206;-67
2022/05/08 00:33:20;;;;;;;0.93;0.93;;;8.50;99.90;;;;;;6349989;28;20267;-67
2022/05/08 00:36:26;;;;;;;0.90;0.90;;;8.60;99.70;;;;;;6348919;28;20229;-66
2022/05/08 00:39:33;;;;;;;0.77;0.77;;;8.60;98.10;;;;;;6347754;28;20259;-67
2022/05/08 00:42:38;;;;;;;1.10;0.80;;;8.60;98.30;;;;;;6348305;28;20229;-66
2022/05/08 00:45:43;;;;;;;1.92;1.00;;;8.50;96.30;;;;;;6348455;28;20327;-66
2022/05/08 00:48:49;;;;;;;0.90;0.90;;;8.50;96.30;;;;;;6348691;28;20221;-66
2022/05/08 00:51:54;;;;;;;0.85;0.77;;;8.40;95.60;;;;;;6349151;28;20213;-67
2022/05/08 00:55:02;;;;;;;1.10;1.10;;;8.50;94.90;;;;;;6349166;28;20224;-68
2022/05/08 00:58:07;;;;;;;0.70;0.70;;;8.40;94.70;;;;;;6350026;28;20226;-64
2022/05/08 01:01:13;;;;;;;0.75;0.73;;;8.40;94.50;;;;;;6366058;28;20222;-65
2022/05/08 01:04:18;;;;;;;0.70;0.70;;;8.40;95.30;;;;;;6365795;28;20229;-64
2022/05/08 01:07:26;;;;;;;0.85;0.85;;;8.50;96.00;;;;;;6363146;28;20230;-66
2022/05/08 01:10:32;;;;;;;0.70;0.70;;;8.50;94.20;;;;;;6341121;28;20205;-67
2022/05/08 01:13:39;;;;;;;1.00;1.00;;;8.60;94.90;;;;;;6322004;28;20232;-65
2022/05/08 01:16:45;;;;;;;0.80;0.80;;;8.50;94.10;;;;;;6322520;28;20202;-66
2022/05/08 01:19:51;;;;;;;0.70;0.70;;;8.50;93.70;;;;;;6321828;28;20685;-65
2022/05/08 01:22:59;;;;;;;0.80;0.80;;;8.50;93.90;;;;;;6321535;28;20593;-67
2022/05/08 01:26:04;;;;;;;0.75;0.75;;;8.60;93.90;;;;;;6322038;28;20726;-65
2022/05/08 01:29:11;;;;;;;0.90;0.90;;;8.50;92.50;;;;;;6321077;28;20230;-66
2022/05/08 01:32:17;;;;;;;1.30;0.80;;;8.40;92.70;;;;;;6321435;28;20594;-66
2022/05/08 01:35:22;;;;;;;0.80;0.80;;;8.40;92.20;;;;;;6321639;28;20207;-65
2022/05/08 01:38:29;;;;;;;0.70;0.70;;;8.40;92.10;;;;;;6321759;28;20677;-66
2022/05/08 01:41:35;;;;;;;0.88;0.88;;;8.40;92.00;;;;;;6322065;28;20213;-66
2022/05/08 01:44:42;;;;;;;0.93;0.93;;;8.40;91.90;;;;;;6321249;28;20234;-66
2022/05/08 01:51:16;;;;;;;0.80;0.80;;;8.30;91.50;;;;;;6321660;28;20590;-65
2022/05/08 01:54:23;;;;;;;2.47;0.90;;;8.30;90.30;;;;;;6321361;28;20226;-66
2022/05/08 01:57:29;;;;;;;1.25;0.90;;;8.30;91.40;;;;;;6321045;28;20228;-67
2022/05/08 02:00:34;;;;;;;0.90;0.90;;;8.20;90.40;;;;;;6321624;28;20226;-66
2022/05/08 02:03:39;;;;;;;0.98;0.98;;;8.20;90.40;;;;;;6320684;28;20241;-66
2022/05/08 02:06:45;;;;;;;1.02;1.02;;;8.20;90.80;;;;;;6321037;28;20229;-65
2022/05/08 02:09:52;;;;;;;0.98;0.98;;;8.30;90.80;;;;;;6324940;28;20225;-66
2022/05/08 02:12:57;;;;;;;0.90;0.90;;;8.20;88.40;;;;;;6346152;28;20241;-65
2022/05/08 02:16:02;;;;;;;1.02;0.85;;;8.20;89.10;;;;;;6346396;28;20212;-67
2022/05/08 02:19:08;;;;;;;0.90;0.90;;;8.20;88.90;;;;;;6346035;28;20228;-66
2022/05/08 02:22:13;;;;;;;1.38;0.95;;;8.10;87.20;;;;;;6345337;28;20230;-67
2022/05/08 02:25:21;;;;;;;0.82;0.82;;;8.10;88.60;;;;;;6346500;28;20563;-67
2022/05/08 02:28:26;;;;;;;0.90;0.90;;;8.10;87.40;;;;;;6345660;28;20238;-66
2022/05/08 02:31:32;;;;;;;0.80;0.80;;;8.10;88.60;;;;;;6346781;28;20551;-66
2022/05/08 02:34:37;;;;;;;1.15;1.15;;;8.10;88.80;;;;;;6345809;28;20245;-65
2022/05/08 02:37:42;;;;;;;0.80;0.80;;;8.10;89.00;;;;;;6349204;28;20328;-66
2022/05/08 02:40:49;;;;;;;0.85;0.80;;;8.10;90.10;;;;;;6351631;28;20202;-66
2022/05/08 02:43:54;;;;;;;0.70;0.70;;;8.10;90.10;;;;;;6349914;28;20238;-65
2022/05/08 02:47:00;;;;;;;1.00;1.00;;;8.10;90.90;;;;;;6350330;28;20213;-66
2022/05/08 02:50:06;;;;;;;0.90;0.90;;;8.10;91.00;;;;;;6351446;28;20205;-66
2022/05/08 02:53:15;;;;;;;0.98;0.98;;;8.10;90.70;;;;;;6350771;28;20233;-66
2022/05/08 02:59:47;;;;;;;0.80;0.80;;;8.20;90.90;;;;;;6349684;28;20234;-65
2022/05/08 03:02:53;;;;;;;1.92;0.90;;;8.10;91.00;;;;;;6340388;28;20712;-66
2022/05/08 03:05:59;;;;;;;0.90;0.90;;;8.10;90.20;;;;;;6342930;28;20559;-65
2022/05/08 03:09:04;;;;;;;1.05;1.05;;;8.10;90.00;;;;;;6324647;28;20279;-65
2022/05/08 03:12:13;;;;;;;0.80;0.80;;;8.10;90.60;;;;;;6346254;28;20675;-65
2022/05/08 03:15:18;;;;;;;1.45;0.90;;;8.00;88.70;;;;;;6348957;28;20205;-66
2022/05/08 03:18:25;;;;;;;0.75;0.75;;;8.10;88.80;;;;;;6347184;28;20249;-65
2022/05/08 03:21:30;;;;;;;0.93;0.93;;;8.00;88.10;;;;;;6325147;28;20198;-66
2022/05/08 03:24:35;;;;;;;1.02;1.00;;;8.00;86.90;;;;;;6324588;28;20238;-65
2022/05/08 03:27:42;;;;;;;1.00;1.00;;;8.00;86.40;;;;;;6324141;28;20250;-65
2022/05/08 03:30:48;;;;;;;0.80;0.80;;;8.00;83.90;;;;;;6324469;28;20203;-66
2022/05/08 03:33:53;;;;;;;1.00;1.00;;;8.00;84.90;;;;;;6324278;28;20230;-66
2022/05/08 03:36:58;;;;;;;0.73;0.73;;;8.00;86.30;;;;;;6338926;28;20201;-66
2022/05/08 03:40:04;;;;;;;0.90;0.90;;;8.10;84.20;;;;;;6348506;28;20313;-66
2022/05/08 03:43:12;;;;;;;1.10;1.10;;;8.00;81.00;;;;;;6330716;28;20233;-66
2022/05/08 03:46:18;;;;;;;1.67;0.93;;;8.00;80.70;;;;;;6349548;28;20248;-66
2022/05/08 03:49:24;;;;;;;0.82;0.82;;;8.00;82.60;;;;;;6349173;28;20574;-66
2022/05/08 03:52:34;;;;;;;1.85;1.00;;;8.00;80.40;;;;;;6349255;28;20206;-65
2022/05/08 03:55:39;;;;;;;0.93;0.88;;;8.00;77.40;;;;;;6349262;28;20649;-68
2022/05/08 03:58:46;;;;;;;1.17;0.93;;;7.90;76.30;;;;;;6349354;28;20659;-66
2022/05/08 04:01:54;;;;;;;0.90;0.90;;;7.80;76.00;;;;;;6349811;28;20578;-66
2022/05/08 04:05:00;;;;;;;1.17;1.10;;;7.70;74.20;;;;;;6349019;28;20633;-66
2022/05/08 04:08:08;;;;;;;1.45;0.90;;;7.80;75.10;;;;;;6348964;28;20272;-64
2022/05/08 04:11:16;;;;;;;0.80;0.80;;;7.90;74.50;;;;;;6332860;28;20211;-64
2022/05/08 04:14:22;;;;;;;1.10;1.00;;;7.90;73.90;;;;;;6322999;28;20241;-67
2022/05/08 04:17:29;;;;;;;0.98;0.98;;;7.80;71.70;;;;;;6324747;28;20213;-66
2022/05/08 04:20:35;;;;;;;0.90;0.90;;;7.70;72.90;;;;;;6324924;28;20209;-66
2022/05/08 04:27:04;;;;;;;1.33;1.33;;;7.60;72.80;;;;;;6325524;28;20668;-66
2022/05/08 04:30:14;;;;;;;1.02;1.00;;;7.60;73.50;;;;;;6323680;28;20234;-66
2022/05/08 04:33:20;;;;;;;0.90;0.90;;;7.60;72.80;;;;;;6323152;28;20249;-67
2022/05/08 04:36:25;;;;;;;0.95;0.93;;;7.60;73.90;;;;;;6323622;28;20214;-66
2022/05/08 04:39:31;;;;;;;0.80;0.70;;;7.60;73.40;;;;;;6322783;28;20316;-67
2022/05/08 04:42:36;;;;;;;1.17;1.05;;;7.70;75.00;;;;;;6322668;28;20232;-66
2022/05/08 04:45:43;;;;;;;0.82;0.82;;;7.70;73.60;;;;;;6323735;28;20222;-65
2022/05/08 04:48:48;;;;;;;1.10;1.10;;;7.60;72.30;;;;;;6322476;28;20602;-66
2022/05/08 04:51:53;;;;;;;0.90;0.90;;;7.70;73.20;;;;;;6322758;28;20207;-67
2022/05/08 04:54:59;;;;;;;2.67;0.98;;;7.80;72.60;;;;;;6322306;28;20256;-66
2022/05/08 04:58:04;;;;;;;1.10;1.10;;;7.70;72.60;;;;;;6322059;28;20238;-66
2022/05/08 05:01:12;;;;;;;1.17;1.17;;;7.80;72.20;;;;;;6308087;28;20656;-66
2022/05/08 05:04:17;;;;;;;1.95;1.05;;;7.90;72.00;;;;;;6297175;28;20715;-67
2022/05/08 05:07:22;;;;;;;1.00;1.00;;;7.80;70.90;;;;;;6296675;28;20223;-66
2022/05/08 05:10:28;;;;;;;1.58;0.80;;;7.80;71.20;;;;;;6306273;28;20205;-66
2022/05/08 05:13:33;;;;;;;1.45;1.00;;;7.90;70.60;;;;;;6321792;28;20230;-66
2022/05/08 05:16:40;;;;;;;2.85;1.00;;;7.90;70.40;;;;;;6322263;28;20538;-66
2022/05/08 05:19:45;;;;;;;1.73;1.42;;;7.80;71.10;;;;;;6321698;28;20241;-66
2022/05/08 05:22:51;;;;;;;1.02;1.00;;;7.90;69.80;;;;;;6321576;28;20257;-66
2022/05/08 05:25:56;;;;;;;1.05;0.90;;;7.90;70.20;;;;;;6322152;28;20233;-66
2022/05/08 05:29:02;;;;;;;0.88;0.88;;;8.00;69.90;;;;;;6303208;28;20240;-66
2022/05/08 05:32:09;;;;;;;2.38;1.00;;;8.00;69.50;;;;;;6323443;28;20199;-67
2022/05/08 05:35:15;;;;;;;3.60;1.10;;;8.00;68.70;;;;;;6322238;28;20237;-66
2022/05/08 05:38:20;;;;;;;0.90;0.90;;;7.90;68.40;;;;;;6303026;28;20238;-65
2022/05/08 05:41:29;;;;;;;1.65;0.90;;;8.10;69.80;;;;;;6321739;28;20229;-66
2022/05/08 05:44:36;;;;;;;1.02;1.00;;;8.20;68.10;;;;;;6321394;28;20542;-66
2022/05/08 05:47:52;;;;;;;1.48;1.10;;;8.30;67.70;;;;;;6321074;28;20598;-65
2022/05/08 05:50:58;;;;;;;1.10;0.95;;;8.30;64.50;;;;;;6322086;28;20207;-65
2022/05/08 05:54:03;;;;;;;1.40;1.00;;;8.30;65.50;;;;;;6321391;28;20238;-66
2022/05/08 05:57:09;;;;;;;1.00;1.00;;;8.50;64.00;;;;;;6321300;28;20269;-66
2022/05/08 06:00:16;;;;;;;1.15;1.05;;;8.60;65.90;;;;;;6320211;28;20279;-66
2022/05/08 06:03:23;;;;;;;1.27;1.17;;;8.70;67.30;;;;;;6321355;28;20234;-66
2022/05/08 06:06:28;;;;;;;1.02;1.00;;;8.80;64.00;;;;;;6321788;28;20229;-67
2022/05/08 06:09:33;;;;;;;1.35;0.90;;;9.00;65.80;;;;;;6323042;28;20234;-65
2022/05/08 06:12:39;;;;;;;2.95;0.90;;;9.10;65.30;;;;;;6352882;28;20729;-66
2022/05/08 06:15:44;;;;;;;0.88;0.88;;;9.20;63.90;;;;;;6358155;28;20216;-65
2022/05/08 06:18:51;;;;;;;1.20;0.90;;;9.30;59.90;;;;;;6363104;28;20687;-64
2022/05/08 06:21:56;;;;;;;0.77;0.77;;;9.20;58.70;;;;;;6360761;28;20643;-65
2022/05/08 06:25:03;;;;;;;1.02;0.98;;;9.30;62.30;;;;;;6351398;28;20244;-67
2022/05/08 06:28:14;;;;;;;0.88;0.88;;;9.40;59.90;;;;;;6350710;28;20248;-66
2022/05/08 06:31:21;;;;;;;0.93;0.93;;;9.60;58.20;;;;;;6351601;28;20205;-67
2022/05/08 06:34:28;;;;;;;0.70;0.70;;;9.70;58.00;;;;;;6351341;28;20225;-66
2022/05/08 06:37:33;;;;;;;4.65;0.90;;;9.60;56.90;;;;;;6350423;28;20238;-66
2022/05/08 06:40:45;;;;;;;0.90;0.90;;;9.70;57.20;;;;;;6351457;28;20205;-65
2022/05/08 06:43:50;;;;;;;1.27;0.98;;;9.70;58.50;;;;;;6348758;28;20238;-66
2022/05/08 06:46:56;;;;;;;1.10;0.90;;;9.90;57.80;;;;;;6351042;28;20301;-66
2022/05/08 06:50:02;;;;;;;0.93;0.90;;;10.10;56.90;;;;;;6350458;28;20229;-67
2022/05/08 06:53:12;;;;;;;1.20;1.00;;;10.10;56.40;;;;;;6350424;28;20234;-66
2022/05/08 06:56:18;;;;;;;1.02;0.90;;;10.20;56.40;;;;;;6350995;28;20210;-65
2022/05/08 07:02:47;;;;;;;1.20;1.10;;;10.20;52.80;;;;;;6349738;28;20716;-66
2022/05/08 07:05:54;;;;;;;1.17;1.17;;;10.10;51.20;;;;;;6350163;28;20289;-67
2022/05/08 07:08:59;;;;;;;2.33;0.90;;;9.90;51.90;;;;;;6349901;28;20567;-66
2022/05/08 07:12:05;;;;;;;1.02;0.68;;;10.10;53.40;;;;;;6350242;28;20197;-66
2022/05/08 07:15:12;;;;;;;0.85;0.85;;;10.40;53.90;;;;;;6350135;28;20544;-66
2022/05/08 07:18:19;;;;;;;0.80;0.80;;;10.60;52.70;;;;;;6349722;28;20229;-66
2022/05/08 07:21:26;;;;;;;1.00;1.00;;;10.40;50.60;;;;;;6349237;28;20198;-66
2022/05/08 07:24:32;;;;;;;1.33;0.90;;;10.40;51.10;;;;;;6349384;28;20704;-67
2022/05/08 07:27:39;;;;;;;2.15;1.10;;;10.60;54.30;;;;;;6349537;28;20241;-66
2022/05/08 07:30:45;;;;;;;3.22;1.08;;;10.60;50.90;;;;;;6349967;28;20201;-67
2022/05/08 07:36:12;;;;;;;0.90;0.90;;;10.70;53.10;;;;;;6349536;28;20229;-66
2022/05/08 07:37:16;;;;;;;1.70;0.90;;;10.80;53.60;;;;;;6349573;28;20228;-66
2022/05/08 07:40:22;;;;;;;0.90;0.90;;;10.80;51.40;;;;;;6331382;28;20666;-68
2022/05/08 07:43:27;;;;;;;3.35;1.10;;;10.80;48.60;;;;;;6331066;28;20226;-66
2022/05/08 07:46:32;;;;;;;0.80;0.80;;;10.70;47.60;;;;;;6349510;28;20206;-67
2022/05/08 07:49:38;;;;;;;0.70;0.70;;;10.70;46.50;;;;;;6349409;28;20226;-67
2022/05/08 07:52:45;;;;;;;2.90;1.00;;;10.70;47.10;;;;;;6348455;28;20240;-67
2022/05/08 07:55:52;;;;;;;1.00;0.73;;;10.70;46.80;;;;;;6349575;28;20202;-66
2022/05/08 07:58:58;;;;;;;0.90;0.90;;;10.80;47.50;;;;;;6348916;28;20586;-65
2022/05/08 08:02:04;;;;;;;0.93;0.73;;;10.80;48.50;;;;;;6348804;28;20595;-66
2022/05/08 08:05:10;;;;;;;1.33;0.70;;;10.90;48.50;;;;;;6349112;28;20236;-66
2022/05/08 08:08:21;;;;;;;1.65;1.13;;;10.80;48.20;;;;;;6348662;28;20252;-66
2022/05/08 08:11:26;;;;;;;1.02;1.02;;;10.90;46.60;;;;;;6331294;28;20654;-66
2022/05/08 08:14:32;;;;;;;0.80;0.80;;;10.90;46.80;;;;;;6349615;28;20252;-66
2022/05/08 08:17:53;;;;;;;0.90;0.90;;;10.60;47.10;;;;;;6351787;28;20229;-66
2022/05/08 08:20:59;;;;;;;1.75;0.73;;;10.70;49.30;;;;;;6352800;28;20212;-66
2022/05/08 08:24:06;;;;;;;1.67;1.00;;;10.70;47.70;;;;;;6348953;28;20331;-67
2022/05/08 08:27:11;;;;;;;2.30;0.70;;;10.70;48.00;;;;;;6348853;28;20225;-64
2022/05/08 08:30:17;;;;;;;0.60;0.60;;;10.60;48.30;;;;;;6347725;28;20201;-65
2022/05/08 08:33:23;;;;;;;0.70;0.70;;;10.40;46.40;;;;;;6347888;28;20233;-66
2022/05/08 08:36:29;;;;;;;0.77;0.77;;;10.60;48.00;;;;;;6348401;28;20206;-66
2022/05/08 08:39:35;;;;;;;2.53;0.98;;;10.70;47.50;;;;;;6347909;28;20698;-67
2022/05/08 08:42:42;;;;;;;0.75;0.75;;;10.80;48.10;;;;;;6347672;28;20567;-66
2022/05/08 08:49:19;;;;;;;1.55;0.90;;;10.70;47.10;;;;;;6348063;28;20329;-66
2022/05/08 08:52:27;;;;;;;0.80;0.80;;;10.70;48.30;;;;;;6347705;28;20260;-66
2022/05/08 08:55:35;;;;;;;1.23;1.00;;;10.80;48.80;;;;;;6347807;28;20297;-66
2022/05/08 08:58:40;;;;;;;1.27;0.93;;;10.70;47.90;;;;;;6347003;28;20226;-67
2022/05/08 09:01:46;;;;;;;0.73;0.73;;;10.50;46.50;;;;;;6348507;28;20230;-67
2022/05/08 09:04:54;;;;;;;1.35;0.70;;;10.50;46.50;;;;;;6347794;28;20217;-67
2022/05/08 09:08:00;;;;;;;0.93;0.93;;;10.60;46.60;;;;;;6347766;28;20238;-68
2022/05/08 09:11:06;;;;;;;1.90;0.70;;;10.80;49.20;;;;;;6333722;28;20202;-67
2022/05/08 09:14:29;;;;;;;3.22;0.80;;;10.90;49.60;;;;;;6322069;28;20347;-67
2022/05/08 09:17:44;;;;;;;0.88;0.88;;;10.80;48.00;;;;;;6321634;28;20241;-65
2022/05/08 09:20:51;;;;;;;1.40;0.90;;;10.90;48.30;;;;;;6322520;28;20202;-66
2022/05/08 09:24:08;;;;;;;5.53;0.90;;;10.90;48.30;;;;;;6321872;28;20589;-66
2022/05/08 09:27:18;;;;;;;1.48;1.08;;;11.00;47.00;;;;;;6321618;28;20328;-66
2022/05/08 09:30:25;;;;;;;1.45;0.77;;;10.90;46.30;;;;;;6303979;28;20230;-68
2022/05/08 09:33:35;;;;;;;0.98;0.98;;;11.00;47.40;;;;;;6321708;28;20234;-66
2022/05/08 09:36:40;;;;;;;0.95;0.75;;;11.10;47.60;;;;;;6321767;28;20519;-67
2022/05/08 09:39:45;;;;;;;4.10;0.80;;;11.20;47.50;;;;;;6321395;28;20233;-67
2022/05/08 09:42:52;;;;;;;5.13;1.10;;;11.20;45.10;;;;;;6321197;28;20222;-66
2022/05/08 09:45:58;;;;;;;0.90;0.70;;;11.20;45.50;;;;;;6321395;28;20206;-66
2022/05/08 09:49:04;;;;;;;1.10;0.80;;;11.20;46.20;;;;;;6321676;28;20688;-67
2022/05/08 09:52:10;;;;;;;1.08;1.08;;;11.10;45.40;;;;;;6303598;28;20202;-67
2022/05/08 09:55:16;;;;;;;0.93;0.93;;;11.20;46.90;;;;;;6320862;28;20214;-67
2022/05/08 09:58:24;;;;;;;2.85;0.80;;;11.30;47.30;;;;;;6303489;28;20230;-67
2022/05/08 10:01:29;;;;;;;0.77;0.77;;;11.30;45.20;;;;;;6338025;28;20571;-66
2022/05/08 10:04:36;;;;;;;0.90;0.90;;;11.40;46.60;;;;;;6346404;28;20688;-65
2022/05/08 10:07:42;;;;;;;1.00;1.00;;;11.50;45.30;;;;;;6346448;28;20233;-68
2022/05/08 10:14:27;;;;;;;2.35;0.93;;;11.80;47.10;;;;;;6321098;28;20232;-67
2022/05/08 10:17:32;;;;;;;1.85;0.85;;;11.60;42.90;;;;;;6320599;28;20203;-66
2022/05/08 10:21:16;;;;;;;7.20;1.17;;;11.80;43.20;;;;;;6320844;28;20245;-67
2022/05/08 10:24:28;;;;;;;2.08;0.77;;;11.90;43.50;;;;;;6321410;28;20249;-67
2022/05/08 10:27:34;;;;;;;0.90;0.90;;;12.00;44.00;;;;;;6320930;28;20209;-67
2022/05/08 10:30:41;;;;;;;0.90;0.90;;;11.90;42.90;;;;;;6321289;28;20222;-69
2022/05/08 10:34:06;;;;;;;1.38;0.90;;;12.00;43.50;;;;;;6302171;28;20568;-66
2022/05/08 10:37:29;;;;;;;1.00;1.00;;;12.00;43.30;;;;;;6321314;28;20207;-66
2022/05/08 10:40:36;;;;;;;0.93;0.90;;;12.20;43.30;;;;;;6320331;28;20215;-65
2022/05/08 10:43:42;;;;;;;0.80;0.80;;;12.10;41.80;;;;;;6320588;28;20238;-67
2022/05/08 10:46:48;;;;;;;1.13;0.88;;;12.00;40.40;;;;;;6320739;28;20214;-67
2022/05/08 10:49:57;;;;;;;1.08;0.88;;;11.90;38.80;;;;;;6320968;28;20227;-66
2022/05/08 10:53:02;;;;;;;2.30;0.80;;;12.00;39.60;;;;;;6320438;28;20697;-66
2022/05/08 10:56:10;;;;;;;4.32;1.27;;;11.90;40.40;;;;;;6321225;28;20206;-66
2022/05/08 10:59:15;;;;;;;1.75;0.73;;;12.00;41.00;;;;;;6325195;28;20230;-67
2022/05/08 11:02:39;;;;;;;0.93;0.75;;;11.90;39.80;;;;;;6325316;28;20585;-68
2022/05/08 11:05:45;;;;;;;2.85;2.83;;;12.10;39.40;;;;;;6325841;28;20202;-67
2022/05/08 11:08:50;;;;;;;1.35;0.70;;;12.20;40.20;;;;;;6325056;28;20278;-67
2022/05/08 11:11:55;;;;;;;1.08;0.80;;;12.30;39.30;;;;;;6325400;28;20223;-66
2022/05/08 11:15:08;;;;;;;1.27;1.17;;;12.10;38.70;;;;;;6325128;28;20284;-67
2022/05/08 11:18:20;;;;;;;1.05;0.98;;;12.10;37.60;;;;;;6324790;28;20234;-67
2022/05/08 11:21:26;;;;;;;1.05;0.93;;;12.00;36.90;;;;;;6324735;28;20215;-66
2022/05/08 11:24:31;;;;;;;3.58;1.00;;;12.00;36.60;;;;;;6324143;28;20226;-67
2022/05/08 11:27:36;;;;;;;0.85;0.85;;;12.10;37.60;;;;;;6325128;28;20231;-65
2022/05/08 11:30:42;;;;;;;0.98;0.85;;;12.10;37.90;;;;;;6325160;28;20230;-66
2022/05/08 11:37:20;;;;;;;1.33;0.98;;;12.20;36.60;;;;;;6336431;28;20217;-66
2022/05/08 11:40:26;;;;;;;0.80;0.80;;;12.30;36.40;;;;;;6332561;28;20215;-66
2022/05/08 11:43:42;;;;;;;0.85;0.80;;;12.40;36.90;;;;;;6324157;28;20230;-66
2022/05/08 11:46:48;;;;;;;1.15;0.90;;;12.60;36.20;;;;;;6324420;28;20225;-66
2022/05/08 11:49:55;;;;;;;1.00;1.00;;;12.50;36.70;;;;;;6323467;28;20268;-66
2022/05/08 11:53:02;;;;;;;2.22;1.05;;;12.40;36.40;;;;;;6323418;28;20595;-66
2022/05/08 11:56:28;;;;;;;1.95;0.82;;;12.50;37.10;;;;;;6323529;28;20211;-66
2022/05/08 11:59:37;;;;;;;2.05;1.00;;;12.60;36.60;;;;;;6322741;28;20231;-67
2022/05/08 12:02:44;;;;;;;0.82;0.82;;;12.60;36.60;;;;;;6323026;28;20333;-66
2022/05/08 12:06:11;;;;;;;0.75;0.75;;;12.80;36.70;;;;;;6324055;28;20209;-66
2022/05/08 12:09:16;;;;;;;1.17;0.90;;;13.10;36.60;;;;;;6323701;28;20696;-66
2022/05/08 12:12:28;;;;;;;1.05;0.90;;;13.10;35.50;;;;;;6330307;28;20218;-66
2022/05/08 12:15:34;;;;;;;1.00;1.00;;;13.00;35.90;;;;;;6348632;28;20593;-66
2022/05/08 12:19:18;;;;;;;1.60;1.30;;;13.00;35.30;;;;;;6347924;28;20234;-67
2022/05/08 12:22:26;;;;;;;3.30;0.90;;;13.00;34.30;;;;;;6348475;28;20206;-67
2022/05/08 12:25:32;;;;;;;0.88;0.88;;;12.80;33.70;;;;;;6349413;28;20561;-67
2022/05/08 12:28:45;;;;;;;0.90;0.90;;;12.90;34.80;;;;;;6348621;28;20676;-67
2022/05/08 12:31:52;;;;;;;1.00;0.90;;;12.80;33.60;;;;;;6348610;28;20330;-66
2022/05/08 12:34:58;;;;;;;3.20;0.95;;;12.80;34.60;;;;;;6347918;28;20244;-66
2022/05/08 12:38:06;;;;;;;1.00;1.00;;;13.00;35.90;;;;;;6348497;28;20257;-65
2022/05/08 12:41:12;;;;;;;0.70;0.70;;;13.10;35.00;;;;;;6348567;28;20206;-68
2022/05/08 12:44:18;;;;;;;0.90;0.90;;;13.20;34.40;;;;;;6348157;28;20623;-67
2022/05/08 12:47:23;;;;;;;1.75;1.00;;;13.50;35.80;;;;;;6347768;28;20202;-67
2022/05/08 12:50:28;;;;;;;1.00;1.00;;;13.60;36.60;;;;;;6348513;28;20210;-66
2022/05/08 12:53:35;;;;;;;1.92;1.10;;;13.80;36.50;;;;;;6348108;28;20243;-67
2022/05/08 12:56:41;;;;;;;3.13;1.23;;;14.00;35.50;;;;;;6348297;28;20296;-67
2022/05/08 12:59:47;;;;;;;1.10;1.10;;;14.00;35.20;;;;;;6348193;28;20234;-67
2022/05/08 13:02:52;;;;;;;1.00;1.00;;;13.80;34.60;;;;;;6349400;28;20714;-66
2022/05/08 13:05:59;;;;;;;8.57;1.42;;;13.60;33.20;;;;;;6348878;28;20202;-66
2022/05/08 13:09:07;;;;;;;2.05;1.60;;;13.50;33.80;;;;;;6347655;28;20221;-67
2022/05/08 13:12:13;;;;;;;0.95;0.95;;;13.60;34.80;;;;;;6324143;28;20219;-67
2022/05/08 13:15:18;;;;;;;1.23;1.23;;;13.50;34.30;;;;;;6322134;28;20207;-67
2022/05/08 13:18:23;;;;;;;0.98;0.98;;;13.50;34.50;;;;;;6322539;28;20238;-66
2022/05/08 13:21:30;;;;;;;1.15;1.15;;;13.40;33.70;;;;;;6322295;28;20210;-66
2022/05/08 13:24:36;;;;;;;1.15;1.15;;;13.40;33.70;;;;;;6321717;28;20653;-67
2022/05/08 13:27:43;;;;;;;3.25;1.00;;;13.10;33.30;;;;;;6320537;28;20231;-66
2022/05/08 13:30:52;;;;;;;1.20;1.20;;;13.10;33.70;;;;;;6322317;28;20202;-66
2022/05/08 13:33:57;;;;;;;1.30;1.20;;;13.30;33.60;;;;;;6322104;28;20230;-67
2022/05/08 13:37:03;;;;;;;0.90;0.90;;;13.40;32.90;;;;;;6322488;28;20206;-66
2022/05/08 13:40:13;;;;;;;1.23;1.00;;;13.40;32.70;;;;;;6321966;28;20228;-66
2022/05/08 13:43:19;;;;;;;1.90;1.17;;;13.40;32.80;;;;;;6321736;28;20262;-67
2022/05/08 13:46:24;;;;;;;1.25;1.10;;;13.70;32.90;;;;;;6322123;28;20207;-67
2022/05/08 13:49:29;;;;;;;1.73;1.20;;;13.80;32.00;;;;;;6321833;28;20241;-67
2022/05/08 13:52:35;;;;;;;1.20;1.20;;;13.90;31.80;;;;;;6321210;28;20226;-66
2022/05/08 13:55:46;;;;;;;0.90;0.90;;;14.10;32.50;;;;;;6322240;28;20315;-68
2022/05/08 13:58:51;;;;;;;2.95;1.30;;;14.20;31.60;;;;;;6321370;28;20296;-68
2022/05/08 14:01:57;;;;;;;1.75;1.08;;;14.10;31.00;;;;;;6342192;28;20248;-67
2022/05/08 14:05:02;;;;;;;3.72;1.30;;;13.80;31.40;;;;;;6345689;28;20225;-66
2022/05/08 14:08:12;;;;;;;1.77;1.10;;;13.60;31.50;;;;;;6345978;28;20259;-68
2022/05/08 14:11:20;;;;;;;2.45;1.38;;;13.40;31.70;;;;;;6346505;28;20194;-66
2022/05/08 14:14:27;;;;;;;1.10;1.00;;;15.30;32.00;;;;;;6345657;28;20233;-66
2022/05/08 14:17:38;;;;;;;1.10;1.10;;;15.90;29.00;;;;;;6328020;28;20233;-66
2022/05/08 14:20:43;;;;;;;1.00;1.00;;;15.80;29.00;;;;;;6346345;28;20214;-66
2022/05/08 14:23:48;;;;;;;1.55;1.27;;;15.40;29.90;;;;;;6345588;28;20244;-66
2022/05/08 14:26:55;;;;;;;1.00;1.00;;;15.20;31.00;;;;;;6347232;28;20213;-67
2022/05/08 14:30:01;;;;;;;1.85;1.38;;;15.10;30.80;;;;;;6345511;28;20252;-67
2022/05/08 14:36:41;;;;;;;3.20;1.13;;;14.40;32.20;;;;;;6273170;28;20208;-67
2022/05/08 14:39:47;;;;;;;1.58;1.00;;;14.20;33.10;;;;;;6351090;28;20222;-63
2022/05/08 14:42:53;;;;;;;1.25;1.20;;;14.00;32.30;;;;;;6350286;28;20234;-69
2022/05/08 14:46:00;;;;;;;1.13;1.13;;;14.10;31.50;;;;;;6350865;28;20204;-67
2022/05/08 14:49:07;;;;;;;6.15;1.05;;;14.20;31.00;;;;;;6350784;28;20226;-67
2022/05/08 14:52:12;;;;;;;0.80;0.80;;;14.30;30.90;;;;;;6350763;28;20204;-67
2022/05/08 14:55:17;;;;;;;0.70;0.70;;;14.30;32.50;;;;;;6350034;28;20216;-69
2022/05/08 14:58:24;;;;;;;1.92;1.10;;;14.00;39.60;;;;;;6350201;28;20230;-67
2022/05/08 15:01:30;;;;;;;1.13;0.82;;;13.80;43.30;;;;;;6351258;28;20230;-67
2022/05/08 15:04:35;;;;;;;4.15;1.20;;;13.60;44.90;;;;;;6351116;28;20236;-66
2022/05/08 15:07:40;;;;;;;1.30;1.20;;;13.70;45.80;;;;;;6351079;28;20233;-68
2022/05/08 15:10:49;;;;;;;3.35;1.17;;;13.40;47.90;;;;;;6339940;28;20199;-66
2022/05/08 15:13:55;;;;;;;3.03;1.15;;;13.00;47.90;;;;;;6325523;28;20234;-67
2022/05/08 15:17:01;;;;;;;2.75;1.30;;;13.00;48.80;;;;;;6325653;28;20655;-68
2022/05/08 15:20:08;;;;;;;1.45;0.93;;;12.80;48.20;;;;;;6325383;28;20226;-70
2022/05/08 15:23:17;;;;;;;4.13;0.82;;;12.50;49.00;;;;;;6325116;28;20242;-67
2022/05/08 15:26:23;;;;;;;3.22;1.00;;;12.50;49.30;;;;;;6325619;28;20211;-67
2022/05/08 15:29:32;;;;;;;1.50;0.90;;;12.50;49.50;;;;;;6325115;28;20542;-68
2022/05/08 15:32:38;;;;;;;1.10;1.10;;;12.30;49.70;;;;;;6325199;28;20248;-68
2022/05/08 15:35:44;;;;;;;3.10;1.10;;;12.30;50.20;;;;;;6325665;28;20245;-69
2022/05/08 15:38:49;;;;;;;1.20;1.00;;;12.10;50.70;;;;;;6324501;28;20237;-67
2022/05/08 15:41:56;;;;;;;1.60;1.13;;;12.10;51.40;;;;;;6325158;28;20210;-68
2022/05/08 15:45:05;;;;;;;1.38;1.20;;;12.00;51.40;;;;;;6306631;28;20242;-68
2022/05/08 15:48:21;;;;;;;2.85;1.60;;;12.00;51.70;;;;;;6325121;28;20241;-67
2022/05/08 15:51:26;;;;;;;1.10;1.10;;;12.00;52.00;;;;;;6310862;28;20205;-67
2022/05/08 15:54:32;;;;;;;1.10;1.10;;;12.00;52.10;;;;;;6328621;28;20328;-68
2022/05/08 15:57:37;;;;;;;1.98;1.05;;;12.10;52.00;;;;;;6327700;28;20227;-67
2022/05/08 16:00:44;;;;;;;1.10;1.10;;;12.00;51.90;;;;;;6327440;28;20227;-67
2022/05/08 16:03:50;;;;;;;1.00;0.82;;;12.00;52.40;;;;;;6325752;28;20602;-67
2022/05/08 16:06:56;;;;;;;1.38;0.85;;;12.10;52.40;;;;;;6305675;28;20205;-67
2022/05/08 16:10:01;;;;;;;1.40;1.00;;;11.90;52.70;;;;;;6328928;28;20214;-67
2022/05/08 16:23:17;;;;;;;2.42;1.00;;;11.80;52.50;;;;;;6349111;28;20238;-66
2022/05/08 16:26:23;;;;;;;3.70;1.30;;;11.70;52.60;;;;;;6349001;28;20220;-67
2022/05/08 16:29:29;;;;;;;3.20;1.10;;;11.70;53.00;;;;;;6349485;28;20230;-67
2022/05/08 16:32:36;;;;;;;1.23;1.10;;;11.70;52.50;;;;;;6348585;28;20230;-66
2022/05/08 16:35:41;;;;;;;2.38;1.13;;;11.70;52.30;;;;;;6348994;28;20230;-66
2022/05/08 16:38:47;;;;;;;1.10;1.10;;;11.60;52.70;;;;;;6348469;28;20225;-67
2022/05/08 16:41:52;;;;;;;3.17;1.13;;;11.60;52.80;;;;;;6348635;28;20198;-65
2022/05/08 16:44:58;;;;;;;1.08;1.08;;;11.60;53.10;;;;;;6348679;28;20230;-66
2022/05/08 16:48:08;;;;;;;2.60;0.90;;;11.50;53.20;;;;;;6348699;28;20233;-66
2022/05/08 16:51:13;;;;;;;4.65;1.20;;;11.40;53.00;;;;;;6349978;28;20209;-66
2022/05/08 16:54:22;;;;;;;1.17;0.93;;;11.30;52.90;;;;;;6348353;28;20562;-66
2022/05/08 16:57:28;;;;;;;1.15;1.10;;;11.20;52.80;;;;;;6348220;28;20206;-66